EDA weather

Edna Bay Seaplane Base
Edna Bay, Alaska, United States

Public forecast

Using degrees Fahrenheit for public forecast. Weather courtesy of forecast.io.

METAR (pilot weather report)

Closest report is Klawock Airport, 29.8 nm (55.1 km) SE. Retrieved 2019/09/21 07:36 UTC (10 minutes ago):

PAKW 210736Z AUTO 16009KT 2SM RA BR OVC027 15/14 A2955 RMK P0006 T01500139 TSNO VIA AUTODIAL

TAF (pilot weather forecast)

Closest forecast is Klawock Airport, 29.8 nm (55.1 km) SE. Retrieved 2019/09/21 06:36 UTC (1 hour ago):

TAF PAKW 210533Z 2106/2206 15015G25KT 6SM -RA BR FEW006 SCT015 OVC035 WS020/18040KT TEMPO 2106/2108 3SM RA BR SCT006 OVC015 FM210800 18012G20KT 4SM -RA BR SCT008 OVC015 FM211200 20010KT 6SM -SHRA BR OVC025 AMD LTD TO CLD VIS AND WIND